Time;durP1;ratioP1;P1;durP2;ratioP2;P2;SDS_P1;SDS_P2;PMS_P1;PMS_P2;Temp;Humidity;BMP_temperature;BMP_pressure;BME280_temperature;BME280_humidity;BME280_pressure;Samples;Min_cycle;Max_cycle;Signal;HPM_P1;HPM_P2
2022/07/01 00:00:58;;;;;;;15.95;7.90;;;;;;;17.48;100.00;100261.20;1657859;86;21045;-70
2022/07/01 00:03:25;;;;;;;12.15;7.65;;;;;;;17.46;100.00;100268.42;1658266;86;21049;-71
2022/07/01 00:05:51;;;;;;;12.50;7.20;;;;;;;17.46;100.00;100265.76;1658103;86;21659;-71
2022/07/01 00:08:18;;;;;;;9.85;8.30;;;;;;;17.43;100.00;100268.63;1658331;85;21566;-71
2022/07/01 00:10:45;;;;;;;22.50;8.48;;;;;;;17.41;100.00;100271.37;1658061;86;21048;-70
2022/07/01 00:13:12;;;;;;;13.40;7.97;;;;;;;17.39;100.00;100269.28;1658363;86;21117;-71
2022/07/01 00:15:39;;;;;;;17.65;8.15;;;;;;;17.37;100.00;100273.88;1658109;86;21162;-71
2022/07/01 00:18:06;;;;;;;14.60;7.65;;;;;;;17.33;100.00;100275.02;1655924;86;21600;-70
2022/07/01 00:20:33;;;;;;;17.75;8.43;;;;;;;17.29;100.00;100269.02;1645754;87;22090;-70
2022/07/01 00:23:00;;;;;;;13.32;8.03;;;;;;;17.25;100.00;100270.15;1646141;87;21121;-72
2022/07/01 00:25:26;;;;;;;15.35;8.33;;;;;;;17.23;100.00;100272.08;1678683;85;21121;-70
2022/07/01 00:27:53;;;;;;;12.03;8.10;;;;;;;17.22;100.00;100270.35;1646249;87;21608;-71
2022/07/01 00:30:19;;;;;;;8.80;6.58;;;;;;;17.22;100.00;100271.68;1678710;85;21064;-72
2022/07/01 00:32:46;;;;;;;13.58;7.80;;;;;;;17.22;100.00;100266.36;1646108;87;21747;-72
2022/07/01 00:35:13;;;;;;;12.93;7.47;;;;;;;17.24;100.00;100265.80;1678757;85;21045;-71
2022/07/01 00:37:39;;;;;;;15.18;8.33;;;;;;;17.25;100.00;100263.49;1645900;87;21669;-71
2022/07/01 00:40:08;;;;;;;12.40;8.50;;;;;;;17.26;100.00;100262.56;1645847;87;21057;-71
2022/07/01 00:42:43;;;;;;;11.63;7.85;;;;;;;17.27;100.00;100256.27;1679019;85;21081;-70
2022/07/01 00:45:09;;;;;;;15.60;8.00;;;;;;;17.28;100.00;100251.34;1678606;85;21523;-71
2022/07/01 00:47:38;;;;;;;13.75;7.67;;;;;;;17.28;100.00;100256.67;1645711;87;21082;-71
2022/07/01 00:50:09;;;;;;;7.33;6.60;;;;;;;17.27;100.00;100260.27;1645959;87;21073;-71
2022/07/01 00:52:36;;;;;;;15.43;7.42;;;;;;;17.25;100.00;100255.52;1684289;83;21018;-70
2022/07/01 00:55:04;;;;;;;13.08;7.28;;;;;;;17.24;100.00;100251.16;1713163;82;21105;-70
2022/07/01 00:57:31;;;;;;;10.72;7.83;;;;;;;17.22;100.00;100250.39;1713322;82;21106;-71
2022/07/01 00:59:58;;;;;;;11.53;7.65;;;;;;;17.18;100.00;100248.87;1713040;83;21610;-71
2022/07/01 01:02:25;;;;;;;11.20;7.87;;;;;;;17.17;100.00;100247.17;1713235;82;21074;-71
2022/07/01 01:04:52;;;;;;;7.00;6.28;;;;;;;17.17;100.00;100252.49;1713291;83;21743;-71
2022/07/01 01:07:20;;;;;;;14.15;7.87;;;;;;;17.16;100.00;100249.44;1713030;82;21030;-71
2022/07/01 01:09:48;;;;;;;13.88;8.23;;;;;;;17.16;100.00;100252.98;1713173;83;21108;-71
2022/07/01 01:12:14;;;;;;;10.98;8.15;;;;;;;17.18;100.00;100252.86;1713378;82;21022;-72
2022/07/01 01:14:47;;;;;;;16.82;7.92;;;;;;;17.20;100.00;100257.61;1713322;83;21041;-71
2022/07/01 01:17:15;;;;;;;11.90;7.90;;;;;;;17.21;100.00;100254.02;1713001;82;21109;-72
2022/07/01 01:19:42;;;;;;;14.73;7.80;;;;;;;17.22;100.00;100255.71;1722450;82;21057;-71
2022/07/01 01:22:09;;;;;;;11.78;8.00;;;;;;;17.21;100.00;100260.67;1725981;83;22003;-71
2022/07/01 01:24:37;;;;;;;13.10;7.75;;;;;;;17.21;100.00;100256.68;1726045;82;21097;-72
2022/07/01 01:27:05;;;;;;;9.98;7.42;;;;;;;17.21;100.00;100259.34;1725845;83;21072;-71
2022/07/01 01:29:32;;;;;;;13.05;7.92;;;;;;;17.21;100.00;100255.34;1726246;83;21092;-71
2022/07/01 01:31:59;;;;;;;12.30;8.40;;;;;;;17.23;100.00;100252.12;1725943;82;21021;-71
2022/07/01 01:34:25;;;;;;;12.73;8.08;;;;;;;17.27;100.00;100252.77;1726132;83;21146;-71
2022/07/01 01:36:52;;;;;;;13.88;8.60;;;;;;;17.28;100.00;100252.67;1725826;83;21084;-72
2022/07/01 01:39:19;;;;;;;9.88;8.25;;;;;;;17.29;100.00;100254.37;1726149;83;21519;-71
2022/07/01 01:41:46;;;;;;;8.85;7.60;;;;;;;17.33;100.00;100262.55;1726177;83;21073;-72
2022/07/01 01:44:13;;;;;;;14.38;8.43;;;;;;;17.36;100.00;100266.34;1726089;83;21100;-72
2022/07/01 01:46:40;;;;;;;13.08;7.58;;;;;;;17.40;100.00;100269.20;1725820;83;21119;-71
2022/07/01 01:49:07;;;;;;;9.60;7.80;;;;;;;17.45;100.00;100270.72;1725802;83;21066;-71
2022/07/01 01:51:34;;;;;;;12.20;8.08;;;;;;;17.50;100.00;100264.62;1709483;83;21088;-71
2022/07/01 01:54:01;;;;;;;11.48;8.03;;;;;;;17.53;100.00;100267.08;1700856;83;21110;-71
2022/07/01 01:56:29;;;;;;;12.85;7.45;;;;;;;17.57;100.00;100269.92;1658819;85;21561;-71
2022/07/01 01:58:58;;;;;;;9.08;7.42;;;;;;;17.58;100.00;100275.65;1658168;86;21200;-72
2022/07/01 02:01:24;;;;;;;10.03;6.90;;;;;;;17.59;100.00;100276.02;1657963;86;21088;-71
2022/07/01 02:03:52;;;;;;;13.45;7.70;;;;;;;17.59;100.00;100283.52;1658467;86;21574;-70
2022/07/01 02:06:19;;;;;;;9.78;7.65;;;;;;;17.59;100.00;100285.33;1658043;86;21093;-70
2022/07/01 02:08:46;;;;;;;10.65;7.85;;;;;;;17.59;100.00;100288.00;1658302;86;21144;-72
2022/07/01 02:11:13;;;;;;;12.63;7.50;;;;;;;17.57;100.00;100286.75;1657916;86;21153;-71
2022/07/01 02:13:39;;;;;;;11.28;7.28;;;;;;;17.55;100.00;100291.80;1658305;86;21045;-72
2022/07/01 02:16:06;;;;;;;11.80;7.60;;;;;;;17.56;100.00;100288.20;1657826;86;21064;-72
2022/07/01 02:18:33;;;;;;;8.20;7.28;;;;;;;17.56;100.00;100291.72;1657346;86;21085;-70
2022/07/01 02:21:00;;;;;;;11.93;7.45;;;;;;;17.59;100.00;100294.17;1652761;86;21164;-72
2022/07/01 02:23:27;;;;;;;13.18;8.40;;;;;;;17.63;100.00;100285.52;1686042;85;21151;-71
2022/07/01 02:25:53;;;;;;;10.70;8.30;;;;;;;17.68;100.00;100286.08;1686024;85;21093;-71
2022/07/01 02:28:20;;;;;;;9.43;7.67;;;;;;;17.75;100.00;100291.38;1652905;86;21110;-71
2022/07/01 02:30:47;;;;;;;10.38;8.35;;;;;;;17.80;100.00;100290.60;1686276;85;22190;-70
2022/07/01 02:33:13;;;;;;;11.00;7.33;;;;;;;17.88;100.00;100280.84;1653334;86;21076;-74
2022/07/01 02:35:41;;;;;;;9.95;7.53;;;;;;;17.95;100.00;100286.14;1686421;85;21620;-71
2022/07/01 02:38:08;;;;;;;10.70;8.20;;;;;;;18.01;100.00;100286.20;1686288;85;21100;-71
2022/07/01 02:40:39;;;;;;;10.80;7.42;;;;;;;18.06;100.00;100288.11;1653197;86;21041;-71
2022/07/01 02:43:04;;;;;;;10.32;7.25;;;;;;;18.08;100.00;100276.84;1686004;85;21049;-71
2022/07/01 02:45:31;;;;;;;15.18;7.35;;;;;;;18.11;100.00;100280.66;1653368;86;21077;-70
2022/07/01 02:47:57;;;;;;;9.33;7.20;;;;;;;18.13;100.00;100282.75;1686268;85;21080;-71
2022/07/01 02:50:24;;;;;;;9.48;6.60;;;;;;;18.15;100.00;100280.84;1653086;86;21569;-71
2022/07/01 02:52:51;;;;;;;9.55;6.75;;;;;;;18.17;100.00;100286.89;1661131;85;21115;-71
2022/07/01 02:55:17;;;;;;;13.68;7.30;;;;;;;18.22;100.00;100290.14;1720927;82;21056;-72
2022/07/01 02:57:44;;;;;;;11.70;7.87;;;;;;;18.27;100.00;100287.62;1720651;83;21112;-71
2022/07/01 03:00:13;;;;;;;9.13;7.35;;;;;;;18.31;100.00;100290.47;1720747;83;21521;-72
2022/07/01 03:02:40;;;;;;;11.22;7.45;;;;;;;18.37;100.00;100288.25;1720434;83;21045;-71
2022/07/01 03:05:07;;;;;;;10.40;7.67;;;;;;;18.43;100.00;100292.33;1720893;83;21014;-71
2022/07/01 03:07:37;;;;;;;12.45;7.53;;;;;;;18.49;100.00;100290.56;1720552;83;21132;-72
2022/07/01 03:10:05;;;;;;;10.13;7.50;;;;;;;18.53;100.00;100290.73;1720934;83;21049;-70
2022/07/01 03:12:38;;;;;;;13.40;7.83;;;;;;;18.57;100.00;100288.24;1720943;83;21123;-70
2022/07/01 03:15:12;;;;;;;11.80;7.62;;;;;;;18.68;100.00;100294.19;1720889;83;22111;-71
2022/07/01 03:17:42;;;;;;;10.32;7.87;;;;;;;18.77;100.00;100297.59;1720431;83;21577;-72
2022/07/01 03:20:12;;;;;;;16.07;7.55;;;;;;;18.87;100.00;100299.15;1716481;83;21018;-70
2022/07/01 03:22:40;;;;;;;14.87;7.20;;;;;;;18.95;100.00;100291.94;1713151;82;21062;-72
2022/07/01 03:25:08;;;;;;;14.90;8.03;;;;;;;19.00;100.00;100293.80;1713149;83;21104;-70
2022/07/01 03:27:36;;;;;;;8.58;7.55;;;;;;;19.04;100.00;100294.81;1712787;83;21616;-70
2022/07/01 03:30:04;;;;;;;10.23;7.08;;;;;;;19.15;100.00;100297.23;1712900;83;21041;-70
2022/07/01 03:32:31;;;;;;;10.23;7.70;;;;;;;19.24;100.00;100295.25;1712836;82;21090;-70
2022/07/01 03:34:59;;;;;;;13.03;7.55;;;;;;;19.37;100.00;100296.09;1713087;83;21014;-70
2022/07/01 03:37:26;;;;;;;9.38;7.05;;;;;;;19.47;100.00;100293.12;1712755;83;21109;-71
2022/07/01 03:39:53;;;;;;;11.05;7.97;;;;;;;19.57;100.00;100295.13;1712938;82;21604;-71
2022/07/01 03:42:19;;;;;;;7.97;7.17;;;;;;;19.67;100.00;100296.19;1712913;83;21025;-70
2022/07/01 03:44:46;;;;;;;14.03;7.67;;;;;;;19.70;100.00;100302.67;1713283;83;21070;-71
2022/07/01 03:47:13;;;;;;;10.55;8.13;;;;;;;19.78;100.00;100293.59;1712844;83;21062;-72
2022/07/01 03:49:41;;;;;;;17.35;8.05;;;;;;;19.86;100.00;100293.91;1712959;83;21249;-71
2022/07/01 03:52:10;;;;;;;11.22;8.18;;;;;;;19.96;100.00;100289.22;1713006;83;21522;-71
2022/07/01 03:54:40;;;;;;;13.80;7.50;;;;;;;20.09;100.00;100290.03;1679882;83;21515;-71
2022/07/01 03:57:08;;;;;;;14.87;8.20;;;;;;;20.25;100.00;100289.25;1646678;87;21042;-71
2022/07/01 03:59:39;;;;;;;17.70;8.33;;;;;;;20.51;100.00;100305.15;1646392;87;21070;-71
2022/07/01 04:02:06;;;;;;;11.80;8.13;;;;;;;20.78;100.00;100296.88;1678690;85;21110;-71
2022/07/01 04:04:34;;;;;;;13.08;7.75;;;;;;;21.09;100.00;100299.83;1678770;85;21097;-70
2022/07/01 04:07:03;;;;;;;11.33;8.08;;;;;;;21.40;100.00;100300.98;1645926;87;21618;-70
2022/07/01 04:09:30;;;;;;;9.38;7.70;;;;;;;21.73;100.00;100293.88;1678849;85;21126;-71
2022/07/01 04:11:57;;;;;;;12.60;8.08;;;;;;;22.06;100.00;100290.75;1678973;85;21053;-71
2022/07/01 04:14:24;;;;;;;7.62;5.78;;;;;;;22.40;100.00;100289.67;1645826;87;21154;-72
2022/07/01 04:16:51;;;;;;;12.58;6.35;;;;;;;22.76;100.00;100292.91;1645616;87;21098;-70
2022/07/01 04:19:18;;;;;;;10.35;6.50;;;;;;;23.12;100.00;100289.41;1678630;84;21077;-71
2022/07/01 04:24:32;;;;;;;8.65;5.78;;;;;;;23.82;100.00;100287.70;1678715;85;21045;-70
2022/07/01 04:27:00;;;;;;;6.87;5.37;;;;;;;24.23;97.63;100289.81;1645958;87;21123;-71
2022/07/01 04:29:29;;;;;;;6.03;5.05;;;;;;;24.60;93.18;100288.28;1645713;87;21061;-71
2022/07/01 04:31:56;;;;;;;8.55;5.25;;;;;;;24.98;90.92;100293.22;1645921;87;21311;-71
2022/07/01 04:34:23;;;;;;;9.83;5.35;;;;;;;25.33;88.82;100293.43;1645806;87;21042;-71
2022/07/01 04:36:50;;;;;;;5.97;4.80;;;;;;;25.72;85.39;100299.11;1678998;85;21057;-70
2022/07/01 04:39:17;;;;;;;7.00;4.95;;;;;;;26.02;82.34;100296.64;1678747;85;21671;-70
2022/07/01 04:41:59;;;;;;;5.15;4.62;;;;;;;26.32;79.77;100298.11;1678749;85;21105;-71
2022/07/01 04:44:29;;;;;;;6.90;5.03;;;;;;;26.49;77.36;100293.69;1678543;85;21093;-71
2022/07/01 04:46:57;;;;;;;6.42;4.42;;;;;;;26.63;75.15;100302.28;1678730;85;21069;-72
2022/07/01 04:49:24;;;;;;;6.92;4.10;;;;;;;26.69;74.37;100294.91;1645712;87;21148;-71
2022/07/01 04:51:50;;;;;;;7.53;4.45;;;;;;;26.83;72.61;100292.98;1645792;87;21558;-71
2022/07/01 04:54:17;;;;;;;7.47;4.70;;;;;;;27.00;71.07;100294.77;1673406;85;21050;-71
2022/07/01 04:56:44;;;;;;;7.78;4.12;;;;;;;27.15;70.48;100289.64;1713298;83;21612;-71
2022/07/01 04:59:12;;;;;;;11.12;4.83;;;;;;;27.25;69.63;100292.77;1712990;82;21081;-71
2022/07/01 05:01:42;;;;;;;9.33;4.72;;;;;;;27.25;68.73;100290.89;1713179;83;21101;-73
2022/07/01 05:04:09;;;;;;;9.28;5.17;;;;;;;27.12;68.95;100285.05;1713087;83;21606;-71
2022/07/01 05:06:35;;;;;;;5.58;4.95;;;;;;;27.07;69.36;100292.79;1702884;83;21047;-72
2022/07/01 05:09:01;;;;;;;6.45;4.55;;;;;;;27.08;69.31;100287.23;1713018;83;21062;-72
2022/07/01 05:11:28;;;;;;;7.85;4.53;;;;;;;27.24;69.01;100291.92;1712876;83;21101;-71
2022/07/01 05:13:56;;;;;;;8.88;5.00;;;;;;;27.54;69.15;100295.11;1713105;83;21057;-71
2022/07/01 05:16:22;;;;;;;5.22;3.83;;;;;;;27.82;66.78;100292.48;1712834;83;21189;-72
2022/07/01 05:24:19;;;;;;;5.92;4.50;;;;;;;28.29;65.31;100284.81;1713317;83;21065;-72
2022/07/01 05:26:45;;;;;;;6.05;4.10;;;;;;;28.49;65.27;100286.22;1712969;83;21053;-72
2022/07/01 05:29:12;;;;;;;4.75;3.95;;;;;;;28.77;63.89;100287.21;1713291;83;21050;-72
2022/07/01 05:31:38;;;;;;;5.53;4.20;;;;;;;29.00;62.81;100290.05;1713009;83;21034;-71
2022/07/01 05:34:06;;;;;;;5.78;3.92;;;;;;;29.22;62.57;100288.52;1713216;83;21061;-72
2022/07/01 05:36:34;;;;;;;4.53;4.00;;;;;;;29.54;60.59;100293.46;1713094;82;21030;-72
2022/07/01 05:39:01;;;;;;;14.35;4.97;;;;;;;29.88;57.69;100295.35;1713160;83;21074;-72
2022/07/01 05:41:28;;;;;;;9.33;4.17;;;;;;;30.08;55.70;100294.91;1713205;83;21097;-73
2022/07/01 05:43:55;;;;;;;8.05;4.50;;;;;;;30.25;54.34;100295.14;1713056;83;21332;-72
2022/07/01 05:46:23;;;;;;;8.78;4.25;;;;;;;30.36;53.80;100288.97;1713153;83;21018;-71
2022/07/01 05:48:50;;;;;;;8.08;4.90;;;;;;;30.42;53.63;100293.16;1713085;83;21026;-73
2022/07/01 05:51:16;;;;;;;5.53;4.30;;;;;;;30.62;53.33;100290.80;1712944;82;21577;-72
2022/07/01 05:53:43;;;;;;;5.72;4.90;;;;;;;30.80;52.91;100286.88;1691771;82;21529;-71
2022/07/01 05:56:10;;;;;;;5.30;4.45;;;;;;;30.79;52.90;100288.77;1678500;85;21148;-73
2022/07/01 05:58:37;;;;;;;6.15;4.58;;;;;;;30.97;53.35;100280.30;1647174;87;21128;-72
2022/07/01 06:01:03;;;;;;;4.87;4.28;;;;;;;31.20;52.12;100283.42;1679482;85;21367;-72
2022/07/01 06:03:30;;;;;;;11.70;4.95;;;;;;;31.33;52.01;100278.17;1678416;85;21601;-73
2022/07/01 06:05:57;;;;;;;7.10;4.50;;;;;;;31.49;52.04;100277.16;1645497;87;21148;-71
2022/07/01 06:08:24;;;;;;;7.30;4.42;;;;;;;31.62;51.16;100272.41;1645442;87;21149;-73
2022/07/01 06:10:50;;;;;;;8.93;4.40;;;;;;;31.84;50.49;100277.37;1678542;85;21049;-72
2022/07/01 06:13:17;;;;;;;5.25;4.40;;;;;;;32.06;50.01;100276.92;1678297;85;21109;-72
2022/07/01 06:15:43;;;;;;;5.70;4.28;;;;;;;32.10;50.09;100272.78;1645640;87;21137;-71
2022/07/01 06:18:11;;;;;;;4.72;3.62;;;;;;;32.18;49.81;100271.27;1645436;87;21537;-72
2022/07/01 06:20:37;;;;;;;6.03;4.00;;;;;;;32.27;47.97;100266.02;1683408;84;21664;-71
2022/07/01 06:23:04;;;;;;;7.97;3.83;;;;;;;32.33;47.92;100262.52;1691380;84;21081;-73
2022/07/01 06:25:31;;;;;;;4.62;3.83;;;;;;;32.45;47.22;100264.72;1691478;84;21085;-72
2022/07/01 06:27:58;;;;;;;5.47;3.62;;;;;;;32.58;46.83;100260.78;1691611;84;21077;-72
2022/07/01 06:30:25;;;;;;;4.55;3.50;;;;;;;32.59;47.01;100261.09;1658039;86;21758;-73
2022/07/01 06:32:51;;;;;;;6.10;3.58;;;;;;;32.65;45.89;100265.76;1658072;86;21057;-71
2022/07/01 06:35:19;;;;;;;4.12;3.70;;;;;;;32.75;45.55;100262.16;1658024;86;21593;-70
2022/07/01 06:37:46;;;;;;;6.03;3.77;;;;;;;32.79;44.58;100264.81;1658121;86;21105;-72
2022/07/01 06:40:13;;;;;;;6.03;3.58;;;;;;;32.72;43.04;100247.56;1658445;86;21565;-73
2022/07/01 06:42:40;;;;;;;6.83;4.17;;;;;;;32.60;43.72;100253.22;1657991;86;21655;-74
2022/07/01 06:45:07;;;;;;;14.10;4.70;;;;;;;32.47;43.65;100255.83;1657990;86;21522;-73
2022/07/01 06:47:34;;;;;;;5.17;3.55;;;;;;;32.54;43.57;100258.95;1658087;86;21608;-72
2022/07/01 06:50:01;;;;;;;11.48;4.00;;;;;;;32.60;43.32;100255.94;1658016;86;21116;-72
2022/07/01 06:52:29;;;;;;;4.80;3.80;;;;;;;32.69;42.76;100256.12;1661097;84;21045;-72
2022/07/01 06:54:55;;;;;;;5.45;4.05;;;;;;;32.73;42.61;100246.50;1673568;85;21151;-71
2022/07/01 06:57:22;;;;;;;7.85;3.70;;;;;;;32.99;41.38;100247.72;1673509;85;21078;-72
2022/07/01 06:59:49;;;;;;;6.42;3.80;;;;;;;33.12;41.76;100247.00;1673398;85;21567;-72
2022/07/01 07:02:16;;;;;;;7.65;4.08;;;;;;;33.38;41.69;100240.82;1673731;85;21049;-72
2022/07/01 07:04:42;;;;;;;4.92;3.62;;;;;;;33.78;40.06;100243.74;1673627;85;21600;-72
2022/07/01 07:07:09;;;;;;;4.55;3.75;;;;;;;33.90;40.28;100238.52;1673606;85;21448;-71
2022/07/01 07:09:36;;;;;;;7.00;3.52;;;;;;;33.87;39.23;100242.50;1673612;85;21022;-72
2022/07/01 07:12:04;;;;;;;6.85;3.90;;;;;;;33.76;38.69;100248.56;1673530;85;21054;-72
2022/07/01 07:14:31;;;;;;;8.48;3.50;;;;;;;33.71;39.37;100254.64;1673901;85;21027;-72
2022/07/01 07:16:58;;;;;;;9.93;4.25;;;;;;;33.66;39.56;100248.09;1673541;85;21074;-72
2022/07/01 07:19:24;;;;;;;6.08;3.50;;;;;;;33.70;39.30;100258.41;1673625;85;21099;-73
2022/07/01 07:21:51;;;;;;;4.28;3.87;;;;;;;33.64;38.72;100253.78;1667333;85;21020;-72
2022/07/01 07:24:18;;;;;;;4.05;3.65;;;;;;;33.22;39.56;100249.69;1713007;83;21050;-72
2022/07/01 07:26:45;;;;;;;4.10;3.70;;;;;;;32.85;40.54;100251.41;1713100;82;21097;-72
2022/07/01 07:29:12;;;;;;;5.20;4.12;;;;;;;32.62;41.08;100251.66;1712849;82;21065;-73
2022/07/01 07:31:39;;;;;;;5.45;4.55;;;;;;;32.61;41.47;100248.11;1713083;82;21127;-73
2022/07/01 07:35:09;;;;;;;5.20;4.47;;;;;;;33.01;41.58;100250.59;1796672;79;23191;-72
2022/07/01 07:37:35;;;;;;;7.55;5.12;;;;;;;33.15;41.29;100252.91;1756577;81;21014;-72
2022/07/01 07:40:03;;;;;;;6.03;4.37;;;;;;;33.21;40.69;100254.81;1756380;81;21260;-73
2022/07/01 07:42:30;;;;;;;6.25;4.12;;;;;;;33.06;41.03;100248.66;1756574;81;22017;-73
2022/07/01 07:44:57;;;;;;;9.95;4.37;;;;;;;32.99;41.36;100247.72;1756412;81;21032;-73
2022/07/01 07:47:24;;;;;;;6.42;4.60;;;;;;;33.15;41.72;100250.18;1756557;81;21117;-72
2022/07/01 07:49:51;;;;;;;8.38;4.45;;;;;;;33.21;41.25;100249.35;1756422;81;21100;-71
2022/07/01 07:52:18;;;;;;;5.12;4.67;;;;;;;33.01;40.83;100253.32;1756378;81;21106;-73
2022/07/01 07:54:44;;;;;;;5.30;4.15;;;;;;;32.86;41.06;100253.11;1756640;81;21011;-72
2022/07/01 07:57:12;;;;;;;7.15;4.00;;;;;;;32.60;41.00;100251.85;1756396;81;21574;-72
2022/07/01 07:59:39;;;;;;;8.48;4.33;;;;;;;32.50;40.62;100246.72;1757723;81;21023;-73
2022/07/01 08:02:05;;;;;;;6.85;3.85;;;;;;;32.50;40.15;100243.16;1756995;81;21063;-73
2022/07/01 08:04:32;;;;;;;8.98;4.67;;;;;;;32.60;39.18;100243.18;1756502;81;21131;-72
2022/07/01 08:06:59;;;;;;;7.25;4.45;;;;;;;32.87;39.17;100237.89;1756451;81;21341;-71
2022/07/01 08:09:27;;;;;;;5.37;4.25;;;;;;;33.03;38.61;100238.09;1741120;81;21050;-72
2022/07/01 08:11:53;;;;;;;10.45;4.20;;;;;;;33.22;38.71;100237.91;1726528;82;21078;-73
2022/07/01 08:14:20;;;;;;;4.22;3.80;;;;;;;33.49;37.31;100245.70;1726314;82;21043;-73
2022/07/01 08:16:46;;;;;;;6.17;3.75;;;;;;;33.83;36.85;100233.03;1726482;83;21821;-72
2022/07/01 08:19:13;;;;;;;8.30;3.92;;;;;;;34.18;36.14;100237.00;1726015;83;21047;-72
2022/07/01 08:21:40;;;;;;;4.55;3.55;;;;;;;34.37;35.88;100236.19;1726474;83;21546;-73
2022/07/01 08:24:06;;;;;;;8.03;3.87;;;;;;;34.50;34.60;100234.50;1726304;82;21051;-73
2022/07/01 08:26:33;;;;;;;9.43;4.22;;;;;;;34.33;35.44;100239.02;1726161;82;21055;-72
2022/07/01 08:29:00;;;;;;;4.67;3.90;;;;;;;33.68;36.61;100246.00;1726409;83;21873;-71
2022/07/01 08:31:27;;;;;;;13.18;4.58;;;;;;;32.92;38.37;100242.75;1726244;83;21094;-72
2022/07/01 08:33:54;;;;;;;7.78;3.75;;;;;;;32.40;39.28;100241.61;1721747;82;21043;-73
2022/07/01 08:36:21;;;;;;;6.08;3.75;;;;;;;32.03;39.71;100244.63;1713672;82;21016;-72
2022/07/01 08:38:49;;;;;;;7.08;3.80;;;;;;;31.67;39.78;100245.45;1713810;82;21529;-73
2022/07/01 08:41:17;;;;;;;5.62;3.77;;;;;;;31.48;40.27;100253.19;1713609;82;21205;-73
2022/07/01 08:43:44;;;;;;;4.95;3.45;;;;;;;31.50;40.98;100253.84;1713762;83;21071;-72
2022/07/01 08:46:13;;;;;;;5.25;3.05;;;;;;;31.81;40.35;100249.17;1713132;83;21083;-72
2022/07/01 08:48:44;;;;;;;7.97;3.33;;;;;;;32.20;39.23;100254.21;1712979;83;21102;-72
2022/07/01 08:51:12;;;;;;;6.05;3.25;;;;;;;32.52;38.28;100246.56;1713371;83;21378;-73
2022/07/01 08:53:38;;;;;;;8.05;3.47;;;;;;;32.63;38.55;100255.56;1712952;83;21238;-73
2022/07/01 08:58:51;;;;;;;4.72;2.90;;;;;;;32.86;37.35;100246.30;1713269;83;21050;-72
2022/07/01 09:01:21;;;;;;;4.45;2.65;;;;;;;32.73;36.97;100244.31;1712901;83;21506;-72
2022/07/01 09:03:52;;;;;;;5.00;2.77;;;;;;;32.52;37.11;100246.56;1713214;83;21068;-72
2022/07/01 09:06:24;;;;;;;7.28;2.98;;;;;;;32.36;37.52;100247.13;1713325;82;21053;-73
2022/07/01 09:08:50;;;;;;;2.87;2.50;;;;;;;32.31;38.20;100241.43;1712922;83;21557;-73
2022/07/01 09:11:21;;;;;;;5.50;2.80;;;;;;;32.33;38.12;100244.80;1713078;82;21049;-72
2022/07/01 09:14:13;;;;;;;5.60;2.50;;;;;;;32.47;37.78;100242.20;1713143;83;21045;-73
2022/07/01 09:16:49;;;;;;;7.12;2.72;;;;;;;32.50;36.43;100245.88;1713038;83;21856;-71
2022/07/01 09:19:19;;;;;;;2.52;2.27;;;;;;;32.64;35.76;100235.43;1712931;83;21207;-72
2022/07/01 09:21:51;;;;;;;7.62;2.40;;;;;;;32.63;35.92;100240.58;1712963;82;21061;-72
2022/07/01 09:24:29;;;;;;;6.70;2.70;;;;;;;32.46;35.60;100236.41;1712735;83;21565;-71
2022/07/01 09:27:16;;;;;;;5.55;2.55;;;;;;;32.44;35.71;100239.35;1713294;83;21050;-72
2022/07/01 09:29:48;;;;;;;5.22;2.42;;;;;;;32.63;35.12;100241.94;1713085;83;21101;-72
2022/07/01 09:32:18;;;;;;;3.33;2.30;;;;;;;32.97;35.52;100236.20;1713190;83;21145;-72
2022/07/01 09:34:48;;;;;;;6.20;2.40;;;;;;;33.41;35.71;100233.61;1712867;82;21038;-72
2022/07/01 09:37:18;;;;;;;4.62;2.30;;;;;;;33.88;33.36;100237.34;1713067;82;21006;-72
2022/07/01 09:39:47;;;;;;;5.37;2.25;;;;;;;33.95;32.34;100236.83;1713063;82;21073;-72
2022/07/01 09:42:17;;;;;;;4.83;2.03;;;;;;;33.79;33.46;100234.48;1713054;82;21042;-72
2022/07/01 09:44:54;;;;;;;7.80;2.23;;;;;;;33.76;32.63;100236.28;1713325;83;21521;-73
2022/07/01 09:47:23;;;;;;;4.17;2.10;;;;;;;33.64;33.04;100227.31;1713487;82;21058;-73
2022/07/01 09:49:50;;;;;;;7.87;2.62;;;;;;;33.44;32.96;100235.92;1713369;82;21582;-71
2022/07/01 09:52:17;;;;;;;4.72;2.10;;;;;;;33.41;34.06;100232.25;1712742;82;21049;-74
2022/07/01 09:54:48;;;;;;;5.37;2.17;;;;;;;33.75;32.04;100244.13;1678674;85;21141;-73
2022/07/01 09:57:17;;;;;;;7.33;2.42;;;;;;;33.85;31.95;100237.23;1645952;87;21800;-72
2022/07/01 09:59:44;;;;;;;5.58;2.20;;;;;;;34.07;32.14;100232.95;1678641;85;21054;-72
2022/07/01 10:02:11;;;;;;;7.37;2.40;;;;;;;34.28;31.28;100231.12;1679414;85;21152;-72
2022/07/01 10:04:40;;;;;;;4.67;2.10;;;;;;;34.23;31.24;100222.18;1646145;87;21049;-73
2022/07/01 10:07:20;;;;;;;3.85;1.98;;;;;;;34.01;30.87;100227.81;1678762;85;21141;-71
2022/07/01 10:10:08;;;;;;;3.85;2.33;;;;;;;33.86;31.40;100225.78;1678778;85;21145;-72
2022/07/01 10:12:39;;;;;;;6.40;2.30;;;;;;;33.75;31.49;100227.75;1633644;87;21579;-73
2022/07/01 10:15:09;;;;;;;2.77;2.10;;;;;;;33.55;31.70;100224.41;1659271;85;21189;-73
2022/07/01 10:17:43;;;;;;;9.15;2.20;;;;;;;33.31;33.08;100229.03;1678476;85;21061;-72
2022/07/01 10:20:24;;;;;;;2.52;1.98;;;;;;;33.31;33.19;100221.69;1646157;87;21105;-72
2022/07/01 10:22:53;;;;;;;5.12;2.52;;;;;;;33.41;32.72;100218.06;1645650;87;21867;-71
2022/07/01 10:25:44;;;;;;;3.72;2.20;;;;;;;33.56;32.20;100215.70;1645722;87;21037;-72
2022/07/01 10:28:28;;;;;;;5.58;2.20;;;;;;;33.75;32.37;100214.95;1645767;87;21577;-73
2022/07/01 10:31:07;;;;;;;5.62;1.95;;;;;;;33.90;31.93;100217.49;1645905;87;21485;-72
2022/07/01 10:33:57;;;;;;;4.92;2.10;;;;;;;33.73;31.06;100212.09;1645903;87;21636;-74
2022/07/01 10:36:35;;;;;;;7.35;2.45;;;;;;;33.53;31.79;100211.48;1645739;87;21898;-72
2022/07/01 10:39:08;;;;;;;5.58;2.02;;;;;;;33.57;32.39;100215.53;1645598;87;21722;-72
2022/07/01 10:41:41;;;;;;;4.90;2.00;;;;;;;33.70;32.51;100209.25;1645749;87;21202;-74
2022/07/01 10:44:14;;;;;;;4.67;2.25;;;;;;;33.91;31.95;100209.60;1645646;87;21045;-73
2022/07/01 10:46:44;;;;;;;4.12;2.22;;;;;;;34.22;31.46;100202.22;1678719;85;22030;-72
2022/07/01 10:49:13;;;;;;;3.55;2.20;;;;;;;34.59;30.84;100194.94;1678702;85;21211;-72
2022/07/01 10:51:55;;;;;;;3.33;2.40;;;;;;;34.76;30.39;100196.19;1645618;87;21554;-72
2022/07/01 10:54:39;;;;;;;3.40;2.10;;;;;;;34.61;30.11;100196.97;1708056;83;21113;-72
2022/07/01 10:57:29;;;;;;;5.92;2.12;;;;;;;34.34;30.39;100188.75;1717608;82;21145;-72
2022/07/01 11:00:02;;;;;;;;;;;;;;;34.03;30.61;100192.09;1715486;82;21073;-72
2022/07/01 11:02:35;;;;;;;4.40;1.95;;;;;;;34.11;31.22;100189.70;1712871;83;21033;-71
2022/07/01 11:05:07;;;;;;;5.28;2.00;;;;;;;33.87;31.12;100191.11;1712731;83;21568;-73
2022/07/01 11:07:37;;;;;;;3.50;2.30;;;;;;;33.51;31.43;100194.47;1712752;82;21117;-72
2022/07/01 11:10:06;;;;;;;8.70;2.40;;;;;;;33.45;31.53;100189.82;1712911;82;21010;-73
2022/07/01 11:12:34;;;;;;;4.17;2.00;;;;;;;33.71;31.71;100192.36;1712958;82;21631;-71
2022/07/01 11:15:02;;;;;;;3.05;2.00;;;;;;;34.16;30.93;100187.18;1712849;82;21569;-74
2022/07/01 11:17:29;;;;;;;5.35;2.00;;;;;;;34.48;30.60;100181.38;1712791;83;21002;-73
2022/07/01 11:20:01;;;;;;;4.87;1.70;;;;;;;34.68;30.08;100186.33;1702462;83;21562;-72
2022/07/01 11:22:32;;;;;;;7.95;2.10;;;;;;;34.76;29.67;100175.67;1712794;83;21574;-72
2022/07/01 11:25:06;;;;;;;3.47;1.95;;;;;;;34.75;30.28;100172.64;1702746;83;21034;-73
2022/07/01 11:27:33;;;;;;;5.95;2.27;;;;;;;34.46;29.88;100178.02;1712863;82;21156;-73
2022/07/01 11:30:05;;;;;;;5.97;2.25;;;;;;;33.99;30.57;100173.91;1712984;82;21019;-74
2022/07/01 11:32:34;;;;;;;6.17;2.10;;;;;;;33.77;31.15;100179.23;1712992;82;21073;-72
2022/07/01 11:35:02;;;;;;;3.33;2.10;;;;;;;33.55;31.46;100175.27;1718541;82;21081;-73
2022/07/01 11:40:17;;;;;;;7.85;2.22;;;;;;;33.28;31.76;100185.26;1725908;83;21151;-72